createdAt,value
2022-08-26T00:02:12.703Z,10.90
2022-08-26T00:04:40.906Z,10.80
2022-08-26T00:09:39.099Z,10.70
2022-08-26T00:12:12.158Z,10.70
2022-08-26T00:14:40.575Z,10.70
2022-08-26T00:17:08.617Z,10.70
2022-08-26T00:19:36.576Z,10.70
2022-08-26T00:22:04.521Z,10.70
2022-08-26T00:24:32.823Z,10.80
2022-08-26T00:27:00.754Z,10.70
2022-08-26T00:29:29.167Z,10.80
2022-08-26T00:31:59.875Z,10.70
2022-08-26T00:34:28.200Z,10.80
2022-08-26T00:36:56.808Z,10.70
2022-08-26T00:39:24.858Z,10.80
2022-08-26T00:41:53.183Z,10.70
2022-08-26T00:44:21.783Z,10.60
2022-08-26T00:46:53.570Z,10.50
2022-08-26T00:49:51.518Z,10.50
2022-08-26T00:52:22.199Z,10.30
2022-08-26T00:55:04.167Z,10.20
2022-08-26T00:57:34.207Z,10.30
2022-08-26T01:00:08.209Z,10.30
2022-08-26T01:02:36.711Z,10.20
2022-08-26T01:05:07.030Z,10.30
2022-08-26T01:07:35.927Z,10.30
2022-08-26T01:10:10.752Z,10.30
2022-08-26T01:12:49.631Z,10.40
2022-08-26T01:15:23.775Z,10.50
2022-08-26T01:17:52.099Z,10.50
2022-08-26T01:20:34.230Z,10.60
2022-08-26T01:23:05.915Z,10.50
2022-08-26T01:25:40.694Z,10.60
2022-08-26T01:28:15.665Z,10.50
2022-08-26T01:30:47.507Z,10.50
2022-08-26T01:33:19.279Z,10.60
2022-08-26T01:35:47.996Z,10.50
2022-08-26T01:38:17.971Z,10.60
2022-08-26T01:40:46.103Z,10.50
2022-08-26T01:43:19.549Z,10.50
2022-08-26T01:45:49.603Z,10.50
2022-08-26T01:48:23.263Z,10.40
2022-08-26T01:50:52.903Z,10.30
2022-08-26T01:53:23.773Z,10.30
2022-08-26T01:55:56.091Z,10.30
2022-08-26T01:58:30.787Z,10.40
2022-08-26T02:00:59.225Z,10.30
2022-08-26T02:03:28.330Z,10.20
2022-08-26T02:06:03.952Z,10.30
2022-08-26T02:08:44.755Z,10.40
2022-08-26T02:11:13.601Z,10.40
2022-08-26T02:13:55.563Z,10.40
2022-08-26T02:16:26.111Z,10.50
2022-08-26T02:18:55.586Z,10.50
2022-08-26T02:21:25.049Z,10.50
2022-08-26T02:23:56.256Z,10.50
2022-08-26T02:26:26.817Z,10.60
2022-08-26T02:29:02.050Z,10.60
2022-08-26T02:31:30.121Z,10.70
2022-08-26T02:34:09.292Z,10.80
2022-08-26T02:36:39.390Z,10.90
2022-08-26T02:39:08.008Z,11.00
2022-08-26T02:41:44.900Z,11.00
2022-08-26T02:44:13.364Z,11.10
2022-08-26T02:46:42.248Z,11.10
2022-08-26T02:49:16.913Z,11.10
2022-08-26T02:51:45.564Z,11.10
2022-08-26T02:54:14.069Z,11.20
2022-08-26T02:59:12.718Z,11.20
2022-08-26T03:01:41.813Z,11.20
2022-08-26T03:04:12.539Z,11.20
2022-08-26T03:06:41.626Z,9.80
2022-08-26T03:09:09.663Z,11.30
2022-08-26T03:14:05.482Z,11.30
2022-08-26T03:16:34.191Z,11.30
2022-08-26T03:19:03.664Z,11.30
2022-08-26T03:21:31.663Z,11.30
2022-08-26T03:24:00.394Z,11.30
2022-08-26T03:26:28.875Z,11.30
2022-08-26T03:29:15.650Z,11.20
2022-08-26T03:31:44.379Z,11.20
2022-08-26T03:34:15.654Z,11.10
2022-08-26T03:36:43.681Z,11.10
2022-08-26T03:39:13.181Z,11.10
2022-08-26T03:41:41.892Z,11.00
2022-08-26T03:44:09.706Z,11.00
2022-08-26T03:46:38.813Z,11.00
2022-08-26T03:49:07.166Z,11.00
2022-08-26T03:51:38.703Z,11.00
2022-08-26T03:54:08.535Z,11.10
2022-08-26T03:56:37.367Z,11.00
2022-08-26T03:59:07.846Z,11.10
2022-08-26T04:01:35.790Z,11.30
2022-08-26T04:04:04.305Z,11.30
2022-08-26T04:06:40.262Z,11.30
2022-08-26T04:09:12.039Z,11.30
2022-08-26T04:11:41.966Z,11.30
2022-08-26T04:14:14.366Z,11.40
2022-08-26T04:16:48.445Z,11.40
2022-08-26T04:19:17.325Z,11.40
2022-08-26T04:21:45.973Z,11.40
2022-08-26T04:24:15.681Z,11.40
2022-08-26T04:26:44.107Z,11.50
2022-08-26T04:29:19.010Z,11.40
2022-08-26T04:31:50.034Z,11.60
2022-08-26T04:34:28.746Z,11.60
2022-08-26T04:36:58.678Z,11.70
2022-08-26T04:39:27.541Z,11.70
2022-08-26T04:41:55.744Z,11.70
2022-08-26T04:44:27.835Z,11.80
2022-08-26T04:46:56.831Z,11.90
2022-08-26T04:49:26.096Z,11.90
2022-08-26T04:51:55.354Z,11.90
2022-08-26T04:54:23.676Z,11.90
2022-08-26T04:56:53.282Z,11.90
2022-08-26T04:59:20.943Z,11.90
2022-08-26T05:01:52.252Z,11.90
2022-08-26T05:04:21.127Z,11.90
2022-08-26T05:06:50.063Z,12.00
2022-08-26T05:09:20.815Z,12.00
2022-08-26T05:11:52.007Z,12.10
2022-08-26T05:14:23.311Z,12.10
2022-08-26T05:16:51.534Z,12.20
2022-08-26T05:19:19.776Z,12.30
2022-08-26T05:21:49.585Z,12.30
2022-08-26T05:24:18.003Z,12.30
2022-08-26T05:26:46.855Z,12.80
2022-08-26T05:29:14.648Z,12.40
2022-08-26T05:31:42.785Z,12.40
2022-08-26T05:34:10.489Z,12.50
2022-08-26T05:36:39.071Z,12.50
2022-08-26T05:39:07.654Z,12.60
2022-08-26T05:41:41.039Z,12.70
2022-08-26T05:44:11.959Z,12.80
2022-08-26T05:46:41.785Z,12.70
2022-08-26T05:49:12.834Z,12.80
2022-08-26T05:51:45.007Z,12.80
2022-08-26T05:54:14.076Z,12.90
2022-08-26T05:56:49.978Z,12.90
2022-08-26T05:59:21.407Z,12.90
2022-08-26T06:01:53.405Z,12.80
2022-08-26T06:04:24.994Z,12.90
2022-08-26T06:06:58.198Z,12.90
2022-08-26T06:09:27.006Z,12.90
2022-08-26T06:11:55.943Z,13.00
2022-08-26T06:14:23.630Z,13.00
2022-08-26T06:16:52.019Z,13.00
2022-08-26T06:19:20.118Z,13.10
2022-08-26T06:21:54.695Z,13.20
2022-08-26T06:24:41.740Z,13.30
2022-08-26T06:27:13.659Z,13.50
2022-08-26T06:29:41.911Z,13.60
2022-08-26T06:32:09.556Z,13.50
2022-08-26T06:34:37.431Z,12.50
2022-08-26T06:37:06.452Z,13.80
2022-08-26T06:39:34.672Z,13.80
2022-08-26T06:42:03.387Z,14.00
2022-08-26T06:44:34.957Z,15.80
2022-08-26T06:47:02.703Z,14.10
2022-08-26T06:49:30.436Z,14.10
2022-08-26T06:51:58.511Z,14.30
2022-08-26T06:54:27.769Z,14.30
2022-08-26T06:56:57.220Z,14.40
2022-08-26T06:59:25.617Z,14.40
2022-08-26T07:01:54.762Z,14.50
2022-08-26T07:04:24.566Z,14.70
2022-08-26T07:06:53.847Z,14.70
2022-08-26T07:09:24.172Z,14.70
2022-08-26T07:11:53.010Z,14.80
2022-08-26T07:14:21.893Z,14.90
2022-08-26T07:16:50.606Z,14.90
2022-08-26T07:19:30.066Z,15.00
2022-08-26T07:22:04.166Z,15.00
2022-08-26T07:24:38.310Z,15.10
2022-08-26T07:27:09.218Z,15.10
2022-08-26T07:29:39.537Z,15.20
2022-08-26T07:32:08.531Z,15.20
2022-08-26T07:34:41.891Z,15.40
2022-08-26T07:37:10.003Z,15.40
2022-08-26T07:39:37.848Z,15.50
2022-08-26T07:42:09.721Z,15.60
2022-08-26T07:44:38.281Z,15.70
2022-08-26T07:47:10.568Z,15.70
2022-08-26T07:49:57.404Z,15.80
2022-08-26T07:52:28.103Z,15.90
2022-08-26T07:55:01.012Z,16.00
2022-08-26T07:57:29.318Z,16.00
2022-08-26T07:59:57.902Z,16.10
2022-08-26T08:02:27.311Z,16.10
2022-08-26T08:04:56.770Z,16.30
2022-08-26T08:07:38.526Z,16.60
2022-08-26T08:10:17.703Z,16.50
2022-08-26T08:12:46.516Z,16.70
2022-08-26T08:15:14.420Z,16.60
2022-08-26T08:17:43.816Z,16.60
2022-08-26T08:20:13.455Z,16.60
2022-08-26T08:22:43.153Z,16.60
2022-08-26T08:25:12.179Z,16.50
2022-08-26T08:27:42.354Z,16.50
2022-08-26T08:30:13.639Z,16.70
2022-08-26T08:32:43.779Z,16.80
2022-08-26T08:35:14.628Z,16.80
2022-08-26T08:37:44.803Z,17.00
2022-08-26T08:40:18.841Z,17.10
2022-08-26T08:43:04.040Z,17.30
2022-08-26T08:45:37.204Z,17.40
2022-08-26T08:48:36.962Z,17.50
2022-08-26T08:51:28.177Z,17.70
2022-08-26T08:53:56.920Z,18.00
2022-08-26T08:56:33.334Z,18.10
2022-08-26T08:59:11.439Z,18.30
2022-08-26T09:01:52.487Z,18.50
2022-08-26T09:04:42.081Z,18.50
2022-08-26T09:07:16.038Z,18.60
2022-08-26T09:10:24.714Z,18.70
2022-08-26T09:12:53.087Z,18.80
2022-08-26T09:15:52.915Z,18.80
2022-08-26T09:18:39.417Z,18.90
2022-08-26T09:21:19.550Z,18.80
2022-08-26T09:23:49.620Z,19.00
2022-08-26T09:26:30.772Z,19.00
2022-08-26T09:29:05.006Z,19.10
2022-08-26T09:31:36.264Z,19.10
2022-08-26T09:34:24.362Z,19.20
2022-08-26T09:36:58.496Z,19.20
2022-08-26T09:39:38.557Z,19.40
2022-08-26T09:42:22.641Z,19.50
2022-08-26T09:45:03.786Z,19.50
2022-08-26T09:47:39.353Z,19.50
2022-08-26T09:50:46.735Z,19.60
2022-08-26T09:53:25.336Z,19.60
2022-08-26T09:56:26.024Z,19.50
2022-08-26T09:58:56.789Z,19.50
2022-08-26T10:01:30.490Z,19.50
2022-08-26T10:04:14.911Z,19.50
2022-08-26T10:07:04.916Z,19.50
2022-08-26T10:09:43.484Z,19.50
2022-08-26T10:12:17.060Z,19.50
2022-08-26T10:14:53.934Z,19.50
2022-08-26T10:17:34.425Z,19.60
2022-08-26T10:20:23.457Z,19.60
2022-08-26T10:23:07.020Z,19.70
2022-08-26T10:25:45.153Z,19.70
2022-08-26T10:28:38.607Z,19.70
2022-08-26T10:31:27.738Z,19.70
2022-08-26T10:34:00.064Z,19.90
2022-08-26T10:37:15.065Z,19.90
2022-08-26T10:40:08.741Z,19.90
2022-08-26T10:42:46.824Z,20.00
2022-08-26T10:45:20.103Z,20.00
2022-08-26T10:48:05.332Z,19.90
2022-08-26T10:50:35.269Z,20.00
2022-08-26T10:53:16.856Z,20.00
2022-08-26T10:56:19.082Z,20.20
2022-08-26T10:59:15.251Z,20.40
2022-08-26T11:01:59.927Z,20.30
2022-08-26T11:04:57.288Z,20.40
2022-08-26T11:07:41.339Z,20.30
2022-08-26T11:10:12.196Z,20.20
2022-08-26T11:12:40.092Z,20.20
2022-08-26T11:15:10.233Z,20.20
2022-08-26T11:17:47.379Z,20.10
2022-08-26T11:20:31.395Z,20.40
2022-08-26T11:23:22.476Z,20.40
2022-08-26T11:25:59.714Z,20.30
2022-08-26T11:28:46.088Z,20.30
2022-08-26T11:31:27.469Z,20.50
2022-08-26T11:34:07.183Z,20.60
2022-08-26T11:36:49.218Z,20.80
2022-08-26T11:39:26.154Z,21.00
2022-08-26T11:41:57.838Z,21.20
2022-08-26T11:44:41.412Z,21.40
2022-08-26T11:47:27.190Z,21.70
2022-08-26T11:50:20.740Z,21.80
2022-08-26T11:52:57.355Z,21.90
2022-08-26T11:55:25.206Z,22.20
2022-08-26T11:57:54.476Z,22.50
2022-08-26T12:00:33.461Z,22.90
2022-08-26T12:03:08.523Z,22.90
2022-08-26T12:05:43.732Z,23.00
2022-08-26T12:08:16.616Z,23.10
2022-08-26T12:10:45.058Z,23.20
2022-08-26T12:13:26.246Z,23.40
2022-08-26T12:15:58.789Z,23.40
2022-08-26T12:18:34.598Z,23.40
2022-08-26T12:21:24.632Z,23.50
2022-08-26T12:23:55.016Z,23.40
2022-08-26T12:26:35.285Z,23.30
2022-08-26T12:29:13.186Z,23.20
2022-08-26T12:31:50.237Z,23.30
2022-08-26T12:34:18.732Z,23.30
2022-08-26T12:36:48.250Z,23.30
2022-08-26T12:39:26.853Z,23.20
2022-08-26T12:42:17.232Z,22.90
2022-08-26T12:45:00.873Z,22.80
2022-08-26T12:47:42.645Z,22.70
2022-08-26T12:50:26.501Z,22.80
2022-08-26T12:53:04.591Z,23.00
2022-08-26T12:55:58.670Z,23.00
2022-08-26T12:58:27.956Z,23.20
2022-08-26T13:01:22.459Z,23.10
2022-08-26T13:03:50.969Z,23.10
2022-08-26T13:06:29.568Z,23.10
2022-08-26T13:09:09.423Z,23.20
2022-08-26T13:11:40.419Z,23.20
2022-08-26T13:14:12.222Z,23.50
2022-08-26T13:16:46.967Z,23.60
2022-08-26T13:19:20.834Z,23.60
2022-08-26T13:21:54.649Z,23.60
2022-08-26T13:24:36.111Z,23.60
2022-08-26T13:27:08.304Z,23.30
2022-08-26T13:29:36.364Z,23.30
2022-08-26T13:32:06.217Z,23.20
2022-08-26T13:34:36.944Z,22.90
2022-08-26T13:37:08.953Z,22.90
2022-08-26T13:39:45.072Z,22.80
2022-08-26T13:42:14.921Z,22.70
2022-08-26T13:44:44.431Z,22.60
2022-08-26T13:47:15.040Z,22.60
2022-08-26T13:49:46.543Z,22.70
2022-08-26T13:52:17.074Z,22.80
2022-08-26T13:54:57.441Z,22.90
2022-08-26T13:57:27.970Z,22.90
2022-08-26T13:59:57.223Z,23.20
2022-08-26T14:02:25.989Z,23.20
2022-08-26T14:04:55.572Z,23.80
2022-08-26T14:07:24.077Z,24.60
2022-08-26T14:09:53.659Z,25.30
2022-08-26T14:12:23.021Z,26.00
2022-08-26T14:14:50.855Z,26.60
2022-08-26T14:17:22.857Z,27.20
2022-08-26T14:19:51.330Z,27.80
2022-08-26T14:22:21.714Z,27.80
2022-08-26T14:24:51.045Z,28.30
2022-08-26T14:27:18.684Z,28.80
2022-08-26T14:29:46.415Z,29.40
2022-08-26T14:32:25.135Z,29.80
2022-08-26T14:34:53.868Z,30.20
2022-08-26T14:37:22.801Z,30.70
2022-08-26T14:39:51.433Z,30.70
2022-08-26T14:42:27.967Z,30.20
2022-08-26T14:45:02.079Z,29.50
2022-08-26T14:47:31.671Z,29.50
2022-08-26T14:49:59.526Z,30.20
2022-08-26T14:52:27.782Z,30.50
2022-08-26T14:54:55.678Z,30.50
2022-08-26T14:57:23.416Z,30.70
2022-08-26T14:59:51.304Z,30.80
2022-08-26T15:02:27.811Z,31.10
2022-08-26T15:05:02.897Z,31.70
2022-08-26T15:07:30.681Z,32.20
2022-08-26T15:09:58.521Z,32.60
2022-08-26T15:12:27.833Z,32.80
2022-08-26T15:14:56.348Z,32.90
2022-08-26T15:17:24.729Z,32.60
2022-08-26T15:19:54.120Z,32.00
2022-08-26T15:22:21.878Z,31.60
2022-08-26T15:24:53.716Z,31.30
2022-08-26T15:27:23.019Z,30.80
2022-08-26T15:29:51.807Z,30.10
2022-08-26T15:32:19.581Z,28.60
2022-08-26T15:34:47.542Z,28.50
2022-08-26T15:37:15.444Z,28.50
2022-08-26T15:39:44.734Z,29.90
2022-08-26T15:42:15.620Z,29.80
2022-08-26T15:44:45.509Z,30.20
2022-08-26T15:47:14.901Z,28.80
2022-08-26T15:49:45.441Z,28.00
2022-08-26T15:52:13.248Z,27.20
2022-08-26T15:54:45.571Z,26.50
2022-08-26T15:57:17.601Z,25.80
2022-08-26T15:59:48.246Z,25.40
2022-08-26T16:02:16.137Z,24.90
2022-08-26T16:04:44.365Z,24.90
2022-08-26T16:07:15.370Z,24.70
2022-08-26T16:09:43.997Z,24.40
2022-08-26T16:12:12.908Z,24.40
2022-08-26T16:14:41.758Z,24.00
2022-08-26T16:17:10.121Z,24.00
2022-08-26T16:19:37.919Z,24.40
2022-08-26T16:22:09.180Z,24.50
2022-08-26T16:24:39.697Z,25.30
2022-08-26T16:27:07.752Z,25.90
2022-08-26T16:29:38.448Z,25.90
2022-08-26T16:34:36.860Z,26.20
2022-08-26T16:37:04.893Z,26.20
2022-08-26T16:39:33.905Z,26.20
2022-08-26T16:42:08.405Z,26.10
2022-08-26T16:44:44.526Z,26.10
2022-08-26T16:47:21.370Z,26.00
2022-08-26T16:49:49.507Z,26.60
2022-08-26T16:52:17.870Z,28.70
2022-08-26T16:54:45.678Z,29.50
2022-08-26T16:57:13.870Z,29.50
2022-08-26T16:59:44.719Z,30.40
2022-08-26T17:02:12.743Z,31.10
2022-08-26T17:04:41.375Z,31.60
2022-08-26T17:07:13.823Z,32.20
2022-08-26T17:09:43.208Z,32.70
2022-08-26T17:12:11.304Z,33.10
2022-08-26T17:14:39.215Z,32.70
2022-08-26T17:17:07.569Z,31.60
2022-08-26T17:19:41.043Z,30.40
2022-08-26T17:22:15.642Z,29.10
2022-08-26T17:24:44.795Z,27.80
2022-08-26T17:27:12.982Z,26.10
2022-08-26T17:29:41.071Z,26.00
2022-08-26T17:32:09.302Z,25.40
2022-08-26T17:34:37.763Z,26.80
2022-08-26T17:37:06.097Z,24.50
2022-08-26T17:39:36.119Z,24.10
2022-08-26T17:42:05.053Z,23.80
2022-08-26T17:44:32.822Z,23.50
2022-08-26T17:47:00.730Z,23.30
2022-08-26T17:49:28.865Z,23.10
2022-08-26T17:51:59.273Z,22.90
2022-08-26T17:54:27.808Z,22.80
2022-08-26T17:56:58.080Z,22.50
2022-08-26T17:59:30.477Z,22.50
2022-08-26T18:01:59.301Z,22.40
2022-08-26T18:04:27.913Z,22.20
2022-08-26T18:06:56.384Z,22.20
2022-08-26T18:09:25.713Z,22.10
2022-08-26T18:11:53.587Z,21.90
2022-08-26T18:14:22.107Z,21.90
2022-08-26T18:16:51.093Z,21.80
2022-08-26T18:19:20.048Z,21.80
2022-08-26T18:21:50.418Z,21.80
2022-08-26T18:24:18.462Z,21.70
2022-08-26T18:26:49.649Z,21.70
2022-08-26T18:29:19.556Z,21.60
2022-08-26T18:31:48.924Z,21.60
2022-08-26T18:34:17.045Z,25.10
2022-08-26T18:36:45.194Z,21.40
2022-08-26T18:39:16.089Z,21.40
2022-08-26T18:41:53.312Z,21.40
2022-08-26T18:44:23.832Z,21.30
2022-08-26T18:46:52.331Z,21.20
2022-08-26T18:49:21.234Z,21.20
2022-08-26T18:51:51.202Z,21.20
2022-08-26T18:56:50.084Z,21.00
2022-08-26T18:59:18.537Z,20.80
2022-08-26T19:01:49.646Z,20.90
2022-08-26T19:04:18.716Z,20.60
2022-08-26T19:06:49.222Z,20.50
2022-08-26T19:09:18.295Z,20.50
2022-08-26T19:11:47.461Z,20.40
2022-08-26T19:14:18.683Z,20.30
2022-08-26T19:16:48.925Z,20.30
2022-08-26T19:19:17.282Z,20.10
2022-08-26T19:21:46.016Z,20.00
2022-08-26T19:24:17.669Z,19.80
2022-08-26T19:26:48.830Z,19.80
2022-08-26T19:31:47.234Z,19.60
2022-08-26T19:34:17.489Z,19.50
2022-08-26T19:36:49.097Z,19.40
2022-08-26T19:39:16.932Z,19.40
2022-08-26T19:41:44.681Z,19.40
2022-08-26T19:44:36.937Z,19.30
2022-08-26T19:47:07.232Z,19.30
2022-08-26T19:49:35.172Z,19.30
2022-08-26T19:52:03.230Z,19.30
2022-08-26T19:54:31.318Z,19.20
2022-08-26T19:56:59.082Z,19.30
2022-08-26T19:59:26.861Z,19.20
2022-08-26T20:04:31.293Z,19.10
2022-08-26T20:07:01.714Z,19.20
2022-08-26T20:09:34.291Z,19.20
2022-08-26T20:12:03.715Z,19.30
2022-08-26T20:14:33.849Z,19.30
2022-08-26T20:17:03.224Z,19.40
2022-08-26T20:19:49.983Z,19.40
2022-08-26T20:22:18.691Z,19.40
2022-08-26T20:24:47.026Z,19.40
2022-08-26T20:27:15.558Z,19.40
2022-08-26T20:29:43.468Z,19.40
2022-08-26T20:32:12.152Z,19.30
2022-08-26T20:34:40.239Z,19.30
2022-08-26T20:37:08.574Z,19.10
2022-08-26T20:39:36.580Z,19.00
2022-08-26T20:42:06.681Z,19.00
2022-08-26T20:44:54.685Z,18.90
2022-08-26T20:47:23.590Z,18.80
2022-08-26T20:49:52.324Z,18.70
2022-08-26T20:52:20.858Z,18.70
2022-08-26T20:54:48.617Z,18.70
2022-08-26T20:57:16.321Z,18.60
2022-08-26T20:59:44.385Z,18.50
2022-08-26T21:02:12.568Z,18.50
2022-08-26T21:04:40.661Z,18.30
2022-08-26T21:07:08.458Z,18.20
2022-08-26T21:09:36.757Z,18.10
2022-08-26T21:12:06.192Z,18.10
2022-08-26T21:14:34.232Z,18.00
2022-08-26T21:17:03.023Z,18.00
2022-08-26T21:19:31.072Z,17.90
2022-08-26T21:21:59.591Z,17.90
2022-08-26T21:24:28.495Z,17.90
2022-08-26T21:26:56.341Z,17.80
2022-08-26T21:29:24.607Z,17.70
2022-08-26T21:31:52.426Z,17.60
2022-08-26T21:34:20.549Z,17.60
2022-08-26T21:36:48.623Z,17.60
2022-08-26T21:39:16.987Z,17.40
2022-08-26T21:41:45.619Z,17.40
2022-08-26T21:44:14.990Z,17.30
2022-08-26T21:46:44.477Z,17.20
2022-08-26T21:49:15.751Z,17.20
2022-08-26T21:51:46.375Z,17.20
2022-08-26T21:54:15.284Z,17.00
2022-08-26T21:56:46.662Z,17.00
2022-08-26T21:59:19.378Z,17.00
2022-08-26T22:01:47.559Z,18.80
2022-08-26T22:04:15.947Z,16.80
2022-08-26T22:06:54.691Z,16.80
2022-08-26T22:09:25.802Z,16.70
2022-08-26T22:11:56.879Z,16.70
2022-08-26T22:14:30.754Z,16.60
2022-08-26T22:16:59.822Z,16.50
2022-08-26T22:19:28.332Z,16.50
2022-08-26T22:21:56.610Z,16.40
2022-08-26T22:24:26.515Z,16.40
2022-08-26T22:26:55.304Z,16.30
2022-08-26T22:29:24.471Z,16.30
2022-08-26T22:31:52.458Z,16.20
2022-08-26T22:34:21.275Z,16.10
2022-08-26T22:36:50.462Z,16.10
2022-08-26T22:39:21.659Z,16.10
2022-08-26T22:41:49.970Z,16.10
2022-08-26T22:44:19.538Z,16.00
2022-08-26T22:46:47.332Z,15.90
2022-08-26T22:49:18.865Z,15.90
2022-08-26T22:51:47.088Z,15.80
2022-08-26T22:54:16.591Z,15.80
2022-08-26T22:56:45.123Z,15.80
2022-08-26T22:59:13.558Z,15.80
2022-08-26T23:01:43.333Z,15.80
2022-08-26T23:04:11.887Z,15.80
2022-08-26T23:06:43.237Z,15.80
2022-08-26T23:09:18.539Z,15.80
2022-08-26T23:11:48.468Z,15.80
2022-08-26T23:14:18.353Z,15.90
2022-08-26T23:16:47.478Z,16.00
2022-08-26T23:19:17.863Z,16.00
2022-08-26T23:21:46.152Z,16.10
2022-08-26T23:24:14.584Z,16.10
2022-08-26T23:26:43.359Z,16.10
2022-08-26T23:29:13.236Z,16.10
2022-08-26T23:31:42.909Z,16.10
2022-08-26T23:34:29.970Z,16.10
2022-08-26T23:36:59.117Z,16.10
2022-08-26T23:39:28.119Z,16.10
2022-08-26T23:41:56.929Z,16.10
2022-08-26T23:44:26.604Z,16.00
2022-08-26T23:46:55.862Z,16.00
2022-08-26T23:49:24.414Z,16.00
2022-08-26T23:52:11.549Z,15.80
2022-08-26T23:54:40.405Z,15.90
2022-08-26T23:57:09.368Z,15.90
2022-08-26T23:59:40.681Z,15.90
